createdAt,value
2023-10-09T00:02:12.477Z,100864.00
2023-10-09T00:04:43.221Z,100866.00
2023-10-09T00:07:12.375Z,100856.00
2023-10-09T00:09:49.449Z,100851.00
2023-10-09T00:12:25.094Z,100847.00
2023-10-09T00:14:56.786Z,100859.00
2023-10-09T00:17:25.235Z,100846.00
2023-10-09T00:19:53.369Z,100845.00
2023-10-09T00:22:31.152Z,100830.00
2023-10-09T00:25:12.077Z,100828.00
2023-10-09T00:27:44.240Z,100815.00
2023-10-09T00:30:22.530Z,100820.00
2023-10-09T00:33:08.422Z,100816.00
2023-10-09T00:35:45.553Z,100818.00
2023-10-09T00:38:21.758Z,100832.00
2023-10-09T00:41:03.723Z,100811.00
2023-10-09T00:43:31.369Z,100798.00
2023-10-09T00:46:11.029Z,100776.00
2023-10-09T00:48:42.170Z,100801.00
2023-10-09T00:51:19.800Z,100806.00
2023-10-09T00:53:54.384Z,100794.00
2023-10-09T00:56:28.040Z,100799.00
2023-10-09T00:59:09.455Z,100802.00
2023-10-09T01:01:41.060Z,100805.00
2023-10-09T01:04:19.378Z,100777.00
2023-10-09T01:07:09.847Z,100812.00
2023-10-09T01:09:39.117Z,100815.00
2023-10-09T01:12:06.703Z,100803.00
2023-10-09T01:14:37.417Z,100812.00
2023-10-09T01:17:12.684Z,100798.00
2023-10-09T01:19:39.617Z,100802.00
2023-10-09T01:22:14.166Z,100768.00
2023-10-09T01:24:41.960Z,100793.00
2023-10-09T01:27:16.769Z,100795.00
2023-10-09T01:29:47.495Z,100798.00
2023-10-09T01:32:17.938Z,100796.00
2023-10-09T01:34:47.043Z,100792.00
2023-10-09T01:37:23.480Z,100797.00
2023-10-09T01:39:53.046Z,100801.00
2023-10-09T01:42:30.954Z,100819.00
2023-10-09T01:45:27.953Z,100814.00
2023-10-09T01:47:55.911Z,100812.00
2023-10-09T01:50:28.057Z,100812.00
2023-10-09T01:52:54.930Z,100803.00
2023-10-09T01:55:36.472Z,100791.00
2023-10-09T01:58:37.694Z,100803.00
2023-10-09T02:01:06.629Z,100798.00
2023-10-09T02:03:38.290Z,100785.00
2023-10-09T02:06:06.184Z,100782.00
2023-10-09T02:08:36.857Z,100785.00
2023-10-09T02:11:04.537Z,100786.00
2023-10-09T02:13:32.987Z,100784.00
2023-10-09T02:16:13.982Z,100778.00
2023-10-09T02:18:41.612Z,100774.00
2023-10-09T02:21:09.886Z,100762.00
2023-10-09T02:23:52.460Z,100764.00
2023-10-09T02:26:20.804Z,100761.00
2023-10-09T02:28:54.665Z,100757.00
2023-10-09T02:31:24.194Z,100758.00
2023-10-09T02:33:56.895Z,100751.00
2023-10-09T02:36:24.442Z,100746.00
2023-10-09T02:38:54.397Z,100757.00
2023-10-09T02:41:24.443Z,100743.00
2023-10-09T02:43:51.983Z,100666.00
2023-10-09T02:46:21.582Z,100734.00
2023-10-09T02:48:53.734Z,100734.00
2023-10-09T02:51:28.041Z,100717.00
2023-10-09T02:54:28.160Z,100714.00
2023-10-09T02:57:07.108Z,100720.00
2023-10-09T02:59:35.739Z,100725.00
2023-10-09T03:02:02.653Z,100716.00
2023-10-09T03:04:30.888Z,100715.00
2023-10-09T03:07:02.446Z,100714.00
2023-10-09T03:09:30.110Z,100710.00
2023-10-09T03:12:07.209Z,100701.00
2023-10-09T03:14:42.329Z,100700.00
2023-10-09T03:17:12.493Z,100697.00
2023-10-09T03:19:40.365Z,100695.00
2023-10-09T03:22:12.328Z,100689.00
2023-10-09T03:24:48.718Z,100686.00
2023-10-09T03:27:17.159Z,100677.00
2023-10-09T03:29:50.187Z,100681.00
2023-10-09T03:32:17.501Z,100684.00
2023-10-09T03:34:44.959Z,100682.00
2023-10-09T03:37:38.964Z,100664.00
2023-10-09T03:40:08.766Z,100651.00
2023-10-09T03:42:37.772Z,100626.00
2023-10-09T03:45:14.083Z,100650.00
2023-10-09T03:47:49.488Z,100662.00
2023-10-09T03:50:27.944Z,100654.00
2023-10-09T03:52:56.599Z,100652.00
2023-10-09T03:55:29.112Z,100649.00
2023-10-09T03:58:00.648Z,100655.00
2023-10-09T04:00:31.223Z,100654.00
2023-10-09T04:02:59.765Z,100655.00
2023-10-09T04:05:29.695Z,100661.00
2023-10-09T04:07:59.587Z,100664.00
2023-10-09T04:10:45.240Z,100660.00
2023-10-09T04:13:18.121Z,100673.00
2023-10-09T04:15:45.172Z,100663.00
2023-10-09T04:18:17.142Z,100660.00
2023-10-09T04:21:02.948Z,100636.00
2023-10-09T04:23:48.493Z,100641.00
2023-10-09T04:26:15.569Z,100644.00
2023-10-09T04:28:43.511Z,100649.00
2023-10-09T04:31:11.026Z,100654.00
2023-10-09T04:33:55.428Z,100649.00
2023-10-09T04:36:22.667Z,100649.00
2023-10-09T04:39:00.663Z,100654.00
2023-10-09T04:41:33.905Z,100655.00
2023-10-09T04:44:21.014Z,100662.00
2023-10-09T04:47:14.127Z,100653.00
2023-10-09T04:50:07.422Z,100637.00
2023-10-09T04:52:34.316Z,100641.00
2023-10-09T04:55:08.296Z,100629.00
2023-10-09T04:57:44.261Z,100639.00
2023-10-09T05:00:29.088Z,100637.00
2023-10-09T05:03:11.767Z,100618.00
2023-10-09T05:05:42.952Z,100621.00
2023-10-09T05:08:22.609Z,100604.00
2023-10-09T05:10:59.488Z,100566.00
2023-10-09T05:13:40.733Z,100605.00
2023-10-09T05:16:29.910Z,100600.00
2023-10-09T05:18:59.253Z,100596.00
2023-10-09T05:21:36.450Z,100588.00
2023-10-09T05:24:17.717Z,100601.00
2023-10-09T05:26:49.698Z,100599.00
2023-10-09T05:29:33.485Z,100600.00
2023-10-09T05:32:13.683Z,100579.00
2023-10-09T05:35:00.257Z,100612.00
2023-10-09T05:37:35.801Z,100632.00
2023-10-09T05:40:19.510Z,100623.00
2023-10-09T05:42:58.999Z,100621.00
2023-10-09T05:45:46.959Z,100621.00
2023-10-09T05:48:14.208Z,100587.00
2023-10-09T05:51:01.508Z,100604.00
2023-10-09T05:53:46.657Z,100608.00
2023-10-09T05:56:29.502Z,100614.00
2023-10-09T05:59:14.992Z,100621.00
2023-10-09T06:02:00.801Z,100605.00
2023-10-09T06:04:46.464Z,100606.00
2023-10-09T06:07:15.091Z,100604.00
2023-10-09T06:09:51.673Z,100601.00
2023-10-09T06:12:35.101Z,100582.00
2023-10-09T06:15:32.424Z,100583.00
2023-10-09T06:18:19.425Z,100589.00
2023-10-09T06:21:04.755Z,100594.00
2023-10-09T06:24:03.971Z,100582.00
2023-10-09T06:26:34.198Z,100583.00
2023-10-09T06:29:16.751Z,100597.00
2023-10-09T06:32:00.017Z,100591.00
2023-10-09T06:34:45.896Z,100593.00
2023-10-09T06:37:24.947Z,100591.00
2023-10-09T06:39:56.373Z,100595.00
2023-10-09T06:42:45.296Z,100593.00
2023-10-09T06:45:19.611Z,100610.00
2023-10-09T06:48:01.060Z,100580.00
2023-10-09T06:50:48.031Z,100608.00
2023-10-09T06:53:14.960Z,100614.00
2023-10-09T06:55:52.247Z,100617.00
2023-10-09T06:58:26.583Z,100618.00
2023-10-09T07:01:00.865Z,100622.00
2023-10-09T07:03:34.014Z,100629.00
2023-10-09T07:06:28.179Z,100630.00
2023-10-09T07:09:06.433Z,100639.00
2023-10-09T07:11:41.828Z,100633.00
2023-10-09T07:14:30.069Z,100637.00
2023-10-09T07:17:16.586Z,100631.00
2023-10-09T07:19:45.134Z,100634.00
2023-10-09T07:22:22.286Z,100629.00
2023-10-09T07:24:59.845Z,100637.00
2023-10-09T07:27:51.063Z,100639.00
2023-10-09T07:30:32.706Z,100637.00
2023-10-09T07:33:12.055Z,100646.00
2023-10-09T07:35:43.534Z,100651.00
2023-10-09T07:38:12.540Z,100655.00
2023-10-09T07:40:58.892Z,100665.00
2023-10-09T07:43:40.412Z,100675.00
2023-10-09T07:46:27.783Z,100660.00
2023-10-09T07:48:56.992Z,100657.00
2023-10-09T07:51:32.015Z,100657.00
2023-10-09T07:54:10.125Z,100653.00
2023-10-09T07:56:42.773Z,100655.00
2023-10-09T07:59:12.161Z,100648.00
2023-10-09T08:01:53.734Z,100646.00
2023-10-09T08:04:38.725Z,100629.00
2023-10-09T08:08:03.366Z,100656.00
2023-10-09T08:10:29.605Z,100655.00
2023-10-09T08:12:59.420Z,100639.00
2023-10-09T08:15:50.188Z,100636.00
2023-10-09T08:18:29.263Z,100629.00
2023-10-09T08:21:00.424Z,100624.00
2023-10-09T08:23:47.305Z,100624.00
2023-10-09T08:26:14.587Z,100622.00
2023-10-09T08:28:46.633Z,100610.00
2023-10-09T08:31:34.938Z,100603.00
2023-10-09T08:36:51.002Z,100596.00
2023-10-09T08:39:18.553Z,100594.00
2023-10-09T08:41:45.507Z,100553.00
2023-10-09T08:44:16.211Z,100597.00
2023-10-09T08:46:45.810Z,100574.00
2023-10-09T08:49:13.294Z,100573.00
2023-10-09T08:51:43.292Z,100567.00
2023-10-09T08:54:12.957Z,100561.00
2023-10-09T08:56:50.515Z,100576.00
2023-10-09T08:59:21.952Z,100563.00
2023-10-09T09:01:51.132Z,100576.00
2023-10-09T09:04:41.726Z,100578.00
2023-10-09T09:07:34.595Z,100570.00
2023-10-09T09:10:18.432Z,100575.00
2023-10-09T09:12:46.179Z,100575.00
2023-10-09T09:15:20.198Z,100572.00
2023-10-09T09:17:50.561Z,100580.00
2023-10-09T09:20:46.894Z,100579.00
2023-10-09T09:23:14.781Z,100578.00
2023-10-09T09:25:59.038Z,100579.00
2023-10-09T09:28:40.114Z,100573.00
2023-10-09T09:31:23.385Z,100569.00
2023-10-09T09:33:59.616Z,100574.00
2023-10-09T09:36:30.254Z,100574.00
2023-10-09T09:39:02.597Z,100571.00
2023-10-09T09:41:34.925Z,100570.00
2023-10-09T09:44:02.210Z,100564.00
2023-10-09T09:46:36.363Z,100575.00
2023-10-09T09:49:34.483Z,100571.00
2023-10-09T09:52:11.038Z,100572.00
2023-10-09T09:54:39.536Z,100587.00
2023-10-09T09:57:10.142Z,100583.00
2023-10-09T10:00:01.436Z,100587.00
2023-10-09T10:02:39.189Z,100578.00
2023-10-09T10:05:13.004Z,100582.00
2023-10-09T10:07:44.584Z,100576.00
2023-10-09T10:10:35.521Z,100580.00
2023-10-09T10:13:02.763Z,100575.00
2023-10-09T10:16:21.803Z,100564.00
2023-10-09T10:19:08.011Z,100561.00
2023-10-09T10:21:42.979Z,100564.00
2023-10-09T10:24:31.837Z,100562.00
2023-10-09T10:27:25.326Z,100564.00
2023-10-09T10:30:12.093Z,100553.00
2023-10-09T10:33:10.528Z,100557.00
2023-10-09T10:35:46.287Z,100532.00
2023-10-09T10:38:38.173Z,100533.00
2023-10-09T10:41:19.220Z,100548.00
2023-10-09T10:43:53.651Z,100553.00
2023-10-09T10:46:38.631Z,100571.00
2023-10-09T10:49:12.929Z,100559.00
2023-10-09T10:51:40.141Z,100556.00
2023-10-09T10:54:29.803Z,100557.00
2023-10-09T10:56:59.182Z,100545.00
2023-10-09T10:59:30.375Z,100550.00
2023-10-09T11:01:58.206Z,100554.00
2023-10-09T11:04:33.610Z,100547.00
2023-10-09T11:07:13.802Z,100550.00
2023-10-09T11:10:07.024Z,100552.00
2023-10-09T11:12:54.412Z,100556.00
2023-10-09T11:15:45.808Z,100555.00
2023-10-09T11:18:21.401Z,100541.00
2023-10-09T11:21:05.101Z,100537.00
2023-10-09T11:23:35.552Z,100534.00
2023-10-09T11:26:27.624Z,100540.00
2023-10-09T11:29:33.144Z,100527.00
2023-10-09T11:32:15.575Z,100525.00
2023-10-09T11:34:46.399Z,100514.00
2023-10-09T11:37:32.453Z,100519.00
2023-10-09T11:40:01.770Z,100517.00
2023-10-09T11:42:37.133Z,100512.00
2023-10-09T11:45:25.837Z,100513.00
2023-10-09T11:48:01.399Z,100481.00
2023-10-09T11:50:52.532Z,100487.00
2023-10-09T11:53:34.185Z,100480.00
2023-10-09T11:56:01.815Z,100478.00
2023-10-09T11:58:28.997Z,100483.00
2023-10-09T12:00:59.586Z,100477.00
2023-10-09T12:03:31.366Z,100474.00
2023-10-09T12:06:05.485Z,100482.00
2023-10-09T12:08:36.081Z,100466.00
2023-10-09T12:11:09.368Z,100462.00
2023-10-09T12:13:39.540Z,100450.00
2023-10-09T12:16:12.904Z,100457.00
2023-10-09T12:18:42.391Z,100463.00
2023-10-09T12:21:16.772Z,100443.00
2023-10-09T12:23:48.297Z,100459.00
2023-10-09T12:26:18.357Z,100462.00
2023-10-09T12:28:47.793Z,100455.00
2023-10-09T12:31:16.598Z,100445.00
2023-10-09T12:33:43.678Z,100447.00
2023-10-09T12:36:20.987Z,100452.00
2023-10-09T12:38:55.287Z,100457.00
2023-10-09T12:41:29.372Z,100456.00
2023-10-09T12:43:59.475Z,100460.00
2023-10-09T12:46:27.084Z,100457.00
2023-10-09T12:48:58.756Z,100459.00
2023-10-09T12:51:31.475Z,100456.00
2023-10-09T12:53:58.728Z,100455.00
2023-10-09T12:56:39.558Z,100446.00
2023-10-09T12:59:15.885Z,100452.00
2023-10-09T13:01:44.126Z,100467.00
2023-10-09T13:04:17.499Z,100458.00
2023-10-09T13:06:46.542Z,100462.00
2023-10-09T13:09:41.751Z,100458.00
2023-10-09T13:12:19.389Z,100454.00
2023-10-09T13:14:48.532Z,100459.00
2023-10-09T13:17:15.589Z,100465.00
2023-10-09T13:19:45.419Z,100461.00
2023-10-09T13:22:14.412Z,100473.00
2023-10-09T13:24:42.922Z,100459.00
2023-10-09T13:27:11.079Z,100450.00
2023-10-09T13:29:42.512Z,100465.00
2023-10-09T13:32:16.401Z,100384.00
2023-10-09T13:34:45.809Z,100375.00
2023-10-09T13:37:14.530Z,100452.00
2023-10-09T13:39:53.473Z,100459.00
2023-10-09T13:42:24.365Z,100452.00
2023-10-09T13:44:54.823Z,100452.00
2023-10-09T13:47:22.063Z,100437.00
2023-10-09T13:49:53.475Z,100435.00
2023-10-09T13:52:23.098Z,100443.00
2023-10-09T13:54:51.458Z,100438.00
2023-10-09T13:57:18.558Z,100437.00
2023-10-09T13:59:50.662Z,100449.00
2023-10-09T14:02:19.391Z,100423.00
2023-10-09T14:04:48.549Z,100446.00
2023-10-09T14:07:18.008Z,100424.00
2023-10-09T14:09:45.779Z,100435.00
2023-10-09T14:12:15.594Z,100442.00
2023-10-09T14:14:50.247Z,100442.00
2023-10-09T14:17:24.656Z,100438.00
2023-10-09T14:20:02.193Z,100438.00
2023-10-09T14:22:30.859Z,100430.00
2023-10-09T14:24:57.899Z,100434.00
2023-10-09T14:27:28.324Z,100431.00
2023-10-09T14:29:58.126Z,100438.00
2023-10-09T14:32:35.186Z,100443.00
2023-10-09T14:35:03.100Z,100440.00
2023-10-09T14:37:30.720Z,100455.00
2023-10-09T14:40:00.811Z,100461.00
2023-10-09T14:42:29.041Z,100458.00
2023-10-09T14:44:56.839Z,100456.00
2023-10-09T14:47:24.225Z,100451.00
2023-10-09T14:49:54.015Z,100447.00
2023-10-09T14:55:07.659Z,100447.00
2023-10-09T14:57:35.165Z,100455.00
2023-10-09T15:00:08.800Z,100448.00
2023-10-09T15:02:35.902Z,100447.00
2023-10-09T15:05:05.521Z,100442.00
2023-10-09T15:07:40.928Z,100454.00
2023-10-09T15:10:16.551Z,100430.00
2023-10-09T15:12:44.335Z,100432.00
2023-10-09T15:15:15.092Z,100457.00
2023-10-09T15:17:45.189Z,100467.00
2023-10-09T15:20:16.673Z,100471.00
2023-10-09T15:22:45.481Z,100465.00
2023-10-09T15:25:16.297Z,100467.00
2023-10-09T15:27:46.837Z,100475.00
2023-10-09T15:30:18.235Z,100477.00
2023-10-09T15:32:46.399Z,100483.00
2023-10-09T15:35:16.025Z,100476.00
2023-10-09T15:37:44.236Z,100480.00
2023-10-09T15:40:19.856Z,100481.00
2023-10-09T15:42:51.260Z,100486.00
2023-10-09T15:45:22.624Z,100489.00
2023-10-09T15:47:52.388Z,100478.00
2023-10-09T15:50:20.741Z,100495.00
2023-10-09T15:52:50.515Z,100485.00
2023-10-09T15:55:21.913Z,100484.00
2023-10-09T15:58:00.162Z,100496.00
2023-10-09T16:00:30.046Z,100500.00
2023-10-09T16:02:58.562Z,100505.00
2023-10-09T16:05:27.071Z,100501.00
2023-10-09T16:07:56.346Z,100504.00
2023-10-09T16:10:24.380Z,100498.00
2023-10-09T16:12:54.121Z,100495.00
2023-10-09T16:15:21.791Z,100500.00
2023-10-09T16:17:50.339Z,100495.00
2023-10-09T16:20:23.171Z,100495.00
2023-10-09T16:22:50.873Z,100504.00
2023-10-09T16:25:21.883Z,100505.00
2023-10-09T16:27:50.111Z,100507.00
2023-10-09T16:30:25.207Z,100504.00
2023-10-09T16:32:52.768Z,100508.00
2023-10-09T16:35:23.975Z,100497.00
2023-10-09T16:37:54.196Z,100506.00
2023-10-09T16:40:24.474Z,100509.00
2023-10-09T16:42:54.473Z,100517.00
2023-10-09T16:45:21.747Z,100513.00
2023-10-09T16:47:50.005Z,100516.00
2023-10-09T16:50:17.264Z,100515.00
2023-10-09T16:52:45.897Z,100497.00
2023-10-09T16:55:13.263Z,100519.00
2023-10-09T16:57:42.614Z,100528.00
2023-10-09T17:00:19.630Z,100523.00
2023-10-09T17:02:50.037Z,100537.00
2023-10-09T17:05:29.017Z,100535.00
2023-10-09T17:07:57.190Z,100525.00
2023-10-09T17:10:29.226Z,100532.00
2023-10-09T17:12:56.803Z,100529.00
2023-10-09T17:15:30.571Z,100522.00
2023-10-09T17:17:57.846Z,100532.00
2023-10-09T17:20:28.278Z,100532.00
2023-10-09T17:23:01.387Z,100534.00
2023-10-09T17:25:32.286Z,100538.00
2023-10-09T17:28:02.123Z,100531.00
2023-10-09T17:30:29.328Z,100538.00
2023-10-09T17:32:58.885Z,100534.00
2023-10-09T17:35:28.783Z,100515.00
2023-10-09T17:37:58.136Z,100536.00
2023-10-09T17:40:29.111Z,100543.00
2023-10-09T17:42:58.583Z,100555.00
2023-10-09T17:45:27.951Z,100560.00
2023-10-09T17:48:00.104Z,100555.00
2023-10-09T17:50:28.584Z,100556.00
2023-10-09T17:52:55.655Z,100551.00
2023-10-09T17:55:24.228Z,100553.00
2023-10-09T17:57:51.322Z,100550.00
2023-10-09T18:00:24.174Z,100544.00
2023-10-09T18:02:54.969Z,100545.00
2023-10-09T18:05:22.283Z,100543.00
2023-10-09T18:07:51.016Z,100539.00
2023-10-09T18:10:18.667Z,100540.00
2023-10-09T18:12:45.849Z,100536.00
2023-10-09T18:15:14.862Z,100535.00
2023-10-09T18:17:45.400Z,100536.00
2023-10-09T18:20:13.148Z,100536.00
2023-10-09T18:22:40.111Z,100536.00
2023-10-09T18:25:07.503Z,100533.00
2023-10-09T18:27:34.620Z,100536.00
2023-10-09T18:30:01.598Z,100544.00
2023-10-09T18:32:28.706Z,100549.00
2023-10-09T18:34:55.988Z,100551.00
2023-10-09T18:37:23.189Z,100554.00
2023-10-09T18:39:50.764Z,100561.00
2023-10-09T18:42:17.763Z,100559.00
2023-10-09T18:44:45.222Z,100550.00
2023-10-09T18:47:20.573Z,100545.00
2023-10-09T18:49:51.334Z,100546.00
2023-10-09T18:52:27.781Z,100546.00
2023-10-09T18:54:56.967Z,100545.00
2023-10-09T18:57:25.136Z,100556.00
2023-10-09T18:59:53.066Z,100551.00
2023-10-09T19:02:20.047Z,100557.00
2023-10-09T19:04:47.041Z,100557.00
2023-10-09T19:07:14.823Z,100459.00
2023-10-09T19:09:41.733Z,100547.00
2023-10-09T19:12:09.237Z,100556.00
2023-10-09T19:14:36.158Z,100562.00
2023-10-09T19:17:03.753Z,100556.00
2023-10-09T19:19:30.846Z,100553.00
2023-10-09T19:22:00.671Z,100555.00
2023-10-09T19:24:27.617Z,100544.00
2023-10-09T19:26:54.776Z,100560.00
2023-10-09T19:29:21.820Z,100554.00
2023-10-09T19:31:52.135Z,100552.00
2023-10-09T19:34:19.429Z,100560.00
2023-10-09T19:36:48.636Z,100557.00
2023-10-09T19:39:19.167Z,100562.00
2023-10-09T19:41:46.471Z,100535.00
2023-10-09T19:44:13.504Z,100559.00
2023-10-09T19:46:40.885Z,100539.00
2023-10-09T19:49:10.048Z,100556.00
2023-10-09T19:51:37.219Z,100526.00
2023-10-09T19:54:05.056Z,100550.00
2023-10-09T19:56:33.132Z,100556.00
2023-10-09T19:59:00.286Z,100564.00
2023-10-09T20:01:28.659Z,100553.00
2023-10-09T20:03:55.794Z,100554.00
2023-10-09T20:06:22.787Z,100561.00
2023-10-09T20:08:49.770Z,100556.00
2023-10-09T20:11:16.838Z,100564.00
2023-10-09T20:13:50.992Z,100561.00
2023-10-09T20:16:18.376Z,100551.00
2023-10-09T20:18:45.542Z,100563.00
2023-10-09T20:21:13.466Z,100556.00
2023-10-09T20:23:43.800Z,100573.00
2023-10-09T20:26:16.818Z,100573.00
2023-10-09T20:28:49.222Z,100563.00
2023-10-09T20:31:19.002Z,100563.00
2023-10-09T20:33:46.743Z,100564.00
2023-10-09T20:36:19.351Z,100563.00
2023-10-09T20:38:50.186Z,100564.00
2023-10-09T20:41:18.180Z,100568.00
2023-10-09T20:43:45.574Z,100574.00
2023-10-09T20:46:13.456Z,100576.00
2023-10-09T20:48:46.063Z,100565.00
2023-10-09T20:51:16.180Z,100546.00
2023-10-09T20:53:43.339Z,100561.00
2023-10-09T20:56:11.975Z,100555.00
2023-10-09T20:58:44.206Z,100563.00
2023-10-09T21:01:18.482Z,100552.00
2023-10-09T21:03:47.823Z,100570.00
2023-10-09T21:06:15.876Z,100549.00
2023-10-09T21:08:44.599Z,100563.00
2023-10-09T21:11:11.755Z,100572.00
2023-10-09T21:13:39.973Z,100560.00
2023-10-09T21:16:13.715Z,100550.00
2023-10-09T21:18:47.597Z,100551.00
2023-10-09T21:21:16.456Z,100553.00
2023-10-09T21:23:45.160Z,100549.00
2023-10-09T21:26:23.646Z,100556.00
2023-10-09T21:28:53.160Z,100550.00
2023-10-09T21:31:23.269Z,100554.00
2023-10-09T21:33:51.279Z,100552.00
2023-10-09T21:36:19.412Z,100556.00
2023-10-09T21:38:46.472Z,100555.00
2023-10-09T21:41:18.303Z,100554.00
2023-10-09T21:43:46.588Z,100565.00
2023-10-09T21:46:16.269Z,100564.00
2023-10-09T21:48:44.098Z,100564.00
2023-10-09T21:51:12.713Z,100560.00
2023-10-09T21:53:41.621Z,100550.00
2023-10-09T21:56:11.605Z,100552.00
2023-10-09T21:58:38.858Z,100558.00
2023-10-09T22:01:08.995Z,100552.00
2023-10-09T22:03:37.027Z,100545.00
2023-10-09T22:06:05.666Z,100563.00
2023-10-09T22:08:34.558Z,100553.00
2023-10-09T22:11:03.033Z,100554.00
2023-10-09T22:13:30.160Z,100559.00
2023-10-09T22:15:57.261Z,100561.00
2023-10-09T22:18:25.762Z,100567.00
2023-10-09T22:20:58.218Z,100564.00
2023-10-09T22:23:36.512Z,100565.00
2023-10-09T22:26:07.394Z,100559.00
2023-10-09T22:28:34.711Z,100566.00
2023-10-09T22:31:05.140Z,100562.00
2023-10-09T22:33:47.056Z,100568.00
2023-10-09T22:36:15.422Z,100563.00
2023-10-09T22:38:43.186Z,100569.00
2023-10-09T22:41:10.224Z,100562.00
2023-10-09T22:43:39.994Z,100574.00
2023-10-09T22:46:08.932Z,100583.00
2023-10-09T22:48:42.722Z,100574.00
2023-10-09T22:51:12.484Z,100587.00
2023-10-09T22:53:47.866Z,100574.00
2023-10-09T22:56:17.458Z,100581.00
2023-10-09T22:59:07.308Z,100581.00
2023-10-09T23:01:34.295Z,100589.00
2023-10-09T23:04:17.132Z,100577.00
2023-10-09T23:06:46.917Z,100572.00
2023-10-09T23:09:31.662Z,100577.00
2023-10-09T23:12:00.706Z,100581.00
2023-10-09T23:14:28.450Z,100590.00
2023-10-09T23:17:08.326Z,100601.00
2023-10-09T23:19:45.108Z,100600.00
2023-10-09T23:22:17.083Z,100601.00
2023-10-09T23:25:09.680Z,100595.00
2023-10-09T23:27:48.798Z,100594.00
2023-10-09T23:30:25.044Z,100595.00
2023-10-09T23:33:09.873Z,100600.00
2023-10-09T23:36:05.356Z,100592.00
2023-10-09T23:38:33.160Z,100588.00
2023-10-09T23:41:22.747Z,100595.00
2023-10-09T23:43:54.527Z,100606.00
2023-10-09T23:46:24.971Z,100601.00
2023-10-09T23:48:55.143Z,100597.00
2023-10-09T23:51:22.259Z,100593.00
2023-10-09T23:53:53.813Z,100572.00
2023-10-09T23:56:43.792Z,100601.00
2023-10-09T23:59:14.118Z,100594.00
